Terminal Aerodrome Forecast
Issued by NWS Wilmington, OH

Current Version | Previous Version | Graphics & Text | Print | Product List | Glossary On
Versions: 1 2 3 4 5 6 7 8 9 10 11 12 13
000
FTUS41 KILN 182332
TAFILN
TAF
KILN 182332Z 1900/1924 VRB02KT P6SM SKC
     FM190900 00000KT 5SM BR FEW250
     FM191200 28003KT P6SM FEW250
     FM191500 28006KT P6SM SCT040=

USA.gov is the U.S. government's official web portal to all federal, state and local government web resources and services.